Ruskin, Nebraska
Current Conditions -  °F | °C
As of 11:35 PM on Wednesday 26 Nov 2014 (Local Time) from KHJH Reporting Station
Clear Clear  
Wind Chill: -11°   Ceiling: Unl
Heat Index: -7°   Visibility: 10mi
Dew Point: -10°   Wind: 5mph
Humidity: 80%   Direction: 350°N
Pressure: 30.45"   Gusts: NA
Location:  40.14°N, 97.87°W
Report Text: KHJH 270535Z AUTO 35004KT 10SM CLR M07/M10 A3045 RMK AO2 T10701100
Loading
Personal Weather Stations






























Interactive Weather Map New forecast layout! Learn more

10-Day Weather Forecast

Advertisements
Track Severe Weather on mobile